sensor_id;sensor_type;location;lat;lon;timestamp;temperature;humidity
73955;DHT22;62306;52.516;13.290;2022-08-01T00:02:19;22.50;61.10
73955;DHT22;62306;52.516;13.290;2022-08-01T00:04:46;22.50;61.40
73955;DHT22;62306;52.516;13.290;2022-08-01T00:07:13;22.40;62.00
73955;DHT22;62306;52.516;13.290;2022-08-01T00:09:40;22.40;62.30
73955;DHT22;62306;52.516;13.290;2022-08-01T00:12:09;22.40;62.40
73955;DHT22;62306;52.516;13.290;2022-08-01T00:14:36;22.40;62.80
73955;DHT22;62306;52.516;13.290;2022-08-01T00:17:03;22.40;62.80
73955;DHT22;62306;52.516;13.290;2022-08-01T00:19:30;22.40;62.90
73955;DHT22;62306;52.516;13.290;2022-08-01T00:21:57;22.30;63.20
73955;DHT22;62306;52.516;13.290;2022-08-01T00:24:24;22.30;63.20
73955;DHT22;62306;52.516;13.290;2022-08-01T00:26:51;22.20;63.30
73955;DHT22;62306;52.516;13.290;2022-08-01T00:29:19;22.30;63.50
73955;DHT22;62306;52.516;13.290;2022-08-01T00:31:46;22.30;63.70
73955;DHT22;62306;52.516;13.290;2022-08-01T00:34:13;22.20;64.20
73955;DHT22;62306;52.516;13.290;2022-08-01T00:36:40;22.20;65.10
73955;DHT22;62306;52.516;13.290;2022-08-01T00:39:07;22.20;65.70
73955;DHT22;62306;52.516;13.290;2022-08-01T00:41:35;22.00;66.40
73955;DHT22;62306;52.516;13.290;2022-08-01T00:44:03;22.00;66.80
73955;DHT22;62306;52.516;13.290;2022-08-01T00:46:32;21.90;67.80
73955;DHT22;62306;52.516;13.290;2022-08-01T00:49:00;21.80;68.40
73955;DHT22;62306;52.516;13.290;2022-08-01T00:51:27;21.80;68.70
73955;DHT22;62306;52.516;13.290;2022-08-01T00:53:54;21.70;69.00
73955;DHT22;62306;52.516;13.290;2022-08-01T00:56:24;21.70;69.30
73955;DHT22;62306;52.516;13.290;2022-08-01T00:58:52;21.70;69.20
73955;DHT22;62306;52.516;13.290;2022-08-01T01:01:19;21.70;69.50
73955;DHT22;62306;52.516;13.290;2022-08-01T01:03:49;21.60;69.40
73955;DHT22;62306;52.516;13.290;2022-08-01T01:06:25;21.70;69.50
73955;DHT22;62306;52.516;13.290;2022-08-01T01:09:02;21.70;69.50
73955;DHT22;62306;52.516;13.290;2022-08-01T01:11:36;21.60;69.50
73955;DHT22;62306;52.516;13.290;2022-08-01T01:14:13;21.70;69.30
73955;DHT22;62306;52.516;13.290;2022-08-01T01:16:44;21.70;69.30
73955;DHT22;62306;52.516;13.290;2022-08-01T01:19:18;21.70;69.10
73955;DHT22;62306;52.516;13.290;2022-08-01T01:22:08;21.80;69.10
73955;DHT22;62306;52.516;13.290;2022-08-01T01:24:47;21.80;69.20
73955;DHT22;62306;52.516;13.290;2022-08-01T01:27:22;21.80;68.80
73955;DHT22;62306;52.516;13.290;2022-08-01T01:29:54;21.80;68.80
73955;DHT22;62306;52.516;13.290;2022-08-01T01:32:26;21.80;69.00
73955;DHT22;62306;52.516;13.290;2022-08-01T01:34:55;21.70;69.10
73955;DHT22;62306;52.516;13.290;2022-08-01T01:37:25;21.70;69.00
73955;DHT22;62306;52.516;13.290;2022-08-01T01:39:53;21.80;69.50
73955;DHT22;62306;52.516;13.290;2022-08-01T01:42:21;21.80;69.40
73955;DHT22;62306;52.516;13.290;2022-08-01T01:44:52;21.70;69.70
73955;DHT22;62306;52.516;13.290;2022-08-01T01:47:20;21.60;70.00
73955;DHT22;62306;52.516;13.290;2022-08-01T01:49:49;21.60;70.20
73955;DHT22;62306;52.516;13.290;2022-08-01T01:52:18;21.50;70.30
73955;DHT22;62306;52.516;13.290;2022-08-01T01:54:49;21.50;70.60
73955;DHT22;62306;52.516;13.290;2022-08-01T01:57:18;21.40;70.50
73955;DHT22;62306;52.516;13.290;2022-08-01T01:59:47;21.40;70.90
73955;DHT22;62306;52.516;13.290;2022-08-01T02:02:17;21.40;71.10
73955;DHT22;62306;52.516;13.290;2022-08-01T02:04:46;21.30;71.10
73955;DHT22;62306;52.516;13.290;2022-08-01T02:07:20;21.30;71.40
73955;DHT22;62306;52.516;13.290;2022-08-01T02:09:49;21.30;71.30
73955;DHT22;62306;52.516;13.290;2022-08-01T02:12:17;21.20;71.70
73955;DHT22;62306;52.516;13.290;2022-08-01T02:14:48;21.10;72.20
73955;DHT22;62306;52.516;13.290;2022-08-01T02:17:19;21.10;72.40
73955;DHT22;62306;52.516;13.290;2022-08-01T02:19:47;21.00;72.60
73955;DHT22;62306;52.516;13.290;2022-08-01T02:22:18;21.00;72.90
73955;DHT22;62306;52.516;13.290;2022-08-01T02:24:50;21.00;73.00
73955;DHT22;62306;52.516;13.290;2022-08-01T02:27:25;21.00;73.20
73955;DHT22;62306;52.516;13.290;2022-08-01T02:29:58;20.90;73.50
73955;DHT22;62306;52.516;13.290;2022-08-01T02:32:31;20.90;73.80
73955;DHT22;62306;52.516;13.290;2022-08-01T02:35:00;20.90;74.00
73955;DHT22;62306;52.516;13.290;2022-08-01T02:37:33;20.90;74.10
73955;DHT22;62306;52.516;13.290;2022-08-01T02:40:01;21.00;73.90
73955;DHT22;62306;52.516;13.290;2022-08-01T02:42:29;21.00;74.00
73955;DHT22;62306;52.516;13.290;2022-08-01T02:44:57;21.00;73.80
73955;DHT22;62306;52.516;13.290;2022-08-01T02:47:27;21.00;74.00
73955;DHT22;62306;52.516;13.290;2022-08-01T02:49:55;21.10;73.80
73955;DHT22;62306;52.516;13.290;2022-08-01T02:52:24;21.00;73.90
73955;DHT22;62306;52.516;13.290;2022-08-01T02:54:54;20.90;74.20
73955;DHT22;62306;52.516;13.290;2022-08-01T02:57:22;21.00;74.40
73955;DHT22;62306;52.516;13.290;2022-08-01T02:59:50;20.90;74.70
73955;DHT22;62306;52.516;13.290;2022-08-01T03:02:19;20.80;75.00
73955;DHT22;62306;52.516;13.290;2022-08-01T03:04:49;20.80;75.10
73955;DHT22;62306;52.516;13.290;2022-08-01T03:07:17;20.70;75.20
73955;DHT22;62306;52.516;13.290;2022-08-01T03:09:46;20.80;75.10
73955;DHT22;62306;52.516;13.290;2022-08-01T03:12:18;20.70;75.20
73955;DHT22;62306;52.516;13.290;2022-08-01T03:14:48;20.80;75.60
73955;DHT22;62306;52.516;13.290;2022-08-01T03:17:18;20.80;75.60
73955;DHT22;62306;52.516;13.290;2022-08-01T03:19:46;20.70;75.50
73955;DHT22;62306;52.516;13.290;2022-08-01T03:22:16;20.70;75.70
73955;DHT22;62306;52.516;13.290;2022-08-01T03:24:47;20.80;75.40
73955;DHT22;62306;52.516;13.290;2022-08-01T03:27:16;20.80;75.30
73955;DHT22;62306;52.516;13.290;2022-08-01T03:29:45;20.70;75.30
73955;DHT22;62306;52.516;13.290;2022-08-01T03:32:13;20.80;75.30
73955;DHT22;62306;52.516;13.290;2022-08-01T03:34:40;20.80;75.30
73955;DHT22;62306;52.516;13.290;2022-08-01T03:37:12;20.90;75.00
73955;DHT22;62306;52.516;13.290;2022-08-01T03:39:47;20.90;74.90
73955;DHT22;62306;52.516;13.290;2022-08-01T03:42:19;20.90;74.60
73955;DHT22;62306;52.516;13.290;2022-08-01T03:44:51;20.90;74.80
73955;DHT22;62306;52.516;13.290;2022-08-01T03:47:22;20.90;74.80
73955;DHT22;62306;52.516;13.290;2022-08-01T03:49:52;20.90;74.70
73955;DHT22;62306;52.516;13.290;2022-08-01T03:52:21;20.90;74.90
73955;DHT22;62306;52.516;13.290;2022-08-01T03:54:52;21.00;74.80
73955;DHT22;62306;52.516;13.290;2022-08-01T03:57:21;21.00;74.70
73955;DHT22;62306;52.516;13.290;2022-08-01T03:59:49;21.10;74.80
73955;DHT22;62306;52.516;13.290;2022-08-01T04:02:16;21.10;74.80
73955;DHT22;62306;52.516;13.290;2022-08-01T04:04:44;21.10;74.70
73955;DHT22;62306;52.516;13.290;2022-08-01T04:07:22;21.10;75.00
73955;DHT22;62306;52.516;13.290;2022-08-01T04:09:51;21.10;75.30
73955;DHT22;62306;52.516;13.290;2022-08-01T04:12:18;21.10;75.50
73955;DHT22;62306;52.516;13.290;2022-08-01T04:14:45;21.00;75.50
73955;DHT22;62306;52.516;13.290;2022-08-01T04:17:12;20.90;75.80
73955;DHT22;62306;52.516;13.290;2022-08-01T04:19:40;21.00;76.00
73955;DHT22;62306;52.516;13.290;2022-08-01T04:22:08;21.00;75.70
73955;DHT22;62306;52.516;13.290;2022-08-01T04:24:36;21.10;76.10
73955;DHT22;62306;52.516;13.290;2022-08-01T04:27:09;21.00;76.40
73955;DHT22;62306;52.516;13.290;2022-08-01T04:29:39;21.10;76.30
73955;DHT22;62306;52.516;13.290;2022-08-01T04:32:08;21.00;76.60
73955;DHT22;62306;52.516;13.290;2022-08-01T04:34:39;21.00;76.90
73955;DHT22;62306;52.516;13.290;2022-08-01T04:37:09;21.00;77.00
73955;DHT22;62306;52.516;13.290;2022-08-01T04:39:40;21.00;77.20
73955;DHT22;62306;52.516;13.290;2022-08-01T04:42:10;20.90;77.60
73955;DHT22;62306;52.516;13.290;2022-08-01T04:44:37;20.90;77.80
73955;DHT22;62306;52.516;13.290;2022-08-01T04:47:05;20.90;77.70
73955;DHT22;62306;52.516;13.290;2022-08-01T04:49:34;21.00;77.60
73955;DHT22;62306;52.516;13.290;2022-08-01T04:52:01;21.00;77.60
73955;DHT22;62306;52.516;13.290;2022-08-01T04:54:29;21.00;77.70
73955;DHT22;62306;52.516;13.290;2022-08-01T04:56:59;21.00;78.00
73955;DHT22;62306;52.516;13.290;2022-08-01T04:59:27;21.00;78.20
73955;DHT22;62306;52.516;13.290;2022-08-01T05:02:08;21.00;78.50
73955;DHT22;62306;52.516;13.290;2022-08-01T05:04:35;20.90;78.50
73955;DHT22;62306;52.516;13.290;2022-08-01T05:07:03;20.90;78.90
73955;DHT22;62306;52.516;13.290;2022-08-01T05:09:30;20.90;79.30
73955;DHT22;62306;52.516;13.290;2022-08-01T05:11:58;20.80;79.20
73955;DHT22;62306;52.516;13.290;2022-08-01T05:14:27;20.90;79.60
73955;DHT22;62306;52.516;13.290;2022-08-01T05:16:54;20.90;79.30
73955;DHT22;62306;52.516;13.290;2022-08-01T05:19:22;20.90;79.20
73955;DHT22;62306;52.516;13.290;2022-08-01T05:21:49;21.00;79.30
73955;DHT22;62306;52.516;13.290;2022-08-01T05:24:16;21.00;78.90
73955;DHT22;62306;52.516;13.290;2022-08-01T05:26:43;21.10;78.60
73955;DHT22;62306;52.516;13.290;2022-08-01T05:29:10;21.20;78.40
73955;DHT22;62306;52.516;13.290;2022-08-01T05:31:38;21.30;78.10
73955;DHT22;62306;52.516;13.290;2022-08-01T05:34:05;21.30;78.20
73955;DHT22;62306;52.516;13.290;2022-08-01T05:36:32;21.30;78.00
73955;DHT22;62306;52.516;13.290;2022-08-01T05:38:59;21.30;78.70
73955;DHT22;62306;52.516;13.290;2022-08-01T05:41:26;21.30;78.10
73955;DHT22;62306;52.516;13.290;2022-08-01T05:43:53;21.40;77.90
73955;DHT22;62306;52.516;13.290;2022-08-01T05:46:20;21.40;77.70
73955;DHT22;62306;52.516;13.290;2022-08-01T05:48:49;21.50;77.80
73955;DHT22;62306;52.516;13.290;2022-08-01T05:51:16;21.40;77.30
73955;DHT22;62306;52.516;13.290;2022-08-01T05:53:43;21.60;77.10
73955;DHT22;62306;52.516;13.290;2022-08-01T05:56:09;21.60;76.50
73955;DHT22;62306;52.516;13.290;2022-08-01T05:58:36;21.60;76.90
73955;DHT22;62306;52.516;13.290;2022-08-01T06:01:03;21.60;76.90
73955;DHT22;62306;52.516;13.290;2022-08-01T06:03:30;21.50;77.20
73955;DHT22;62306;52.516;13.290;2022-08-01T06:06:00;21.60;77.40
73955;DHT22;62306;52.516;13.290;2022-08-01T06:08:27;21.60;77.30
73955;DHT22;62306;52.516;13.290;2022-08-01T06:10:54;21.60;78.20
73955;DHT22;62306;52.516;13.290;2022-08-01T06:13:22;21.50;77.50
73955;DHT22;62306;52.516;13.290;2022-08-01T06:15:49;21.40;78.10
73955;DHT22;62306;52.516;13.290;2022-08-01T06:18:16;21.40;78.20
73955;DHT22;62306;52.516;13.290;2022-08-01T06:20:43;21.30;78.70
73955;DHT22;62306;52.516;13.290;2022-08-01T06:23:11;21.30;78.70
73955;DHT22;62306;52.516;13.290;2022-08-01T06:25:39;21.30;78.40
73955;DHT22;62306;52.516;13.290;2022-08-01T06:28:06;21.50;78.30
73955;DHT22;62306;52.516;13.290;2022-08-01T06:30:33;21.60;77.70
73955;DHT22;62306;52.516;13.290;2022-08-01T06:33:00;21.60;77.70
73955;DHT22;62306;52.516;13.290;2022-08-01T06:35:28;21.60;77.60
73955;DHT22;62306;52.516;13.290;2022-08-01T06:37:56;21.60;77.60
73955;DHT22;62306;52.516;13.290;2022-08-01T06:40:25;21.80;76.90
73955;DHT22;62306;52.516;13.290;2022-08-01T06:42:52;21.90;76.10
73955;DHT22;62306;52.516;13.290;2022-08-01T06:45:19;21.90;75.70
73955;DHT22;62306;52.516;13.290;2022-08-01T06:47:48;22.10;75.20
73955;DHT22;62306;52.516;13.290;2022-08-01T06:50:15;22.20;74.00
73955;DHT22;62306;52.516;13.290;2022-08-01T06:52:42;22.30;73.90
73955;DHT22;62306;52.516;13.290;2022-08-01T06:55:09;22.20;74.00
73955;DHT22;62306;52.516;13.290;2022-08-01T06:57:45;22.20;74.20
73955;DHT22;62306;52.516;13.290;2022-08-01T07:00:14;22.20;74.30
73955;DHT22;62306;52.516;13.290;2022-08-01T07:02:42;22.10;74.40
73955;DHT22;62306;52.516;13.290;2022-08-01T07:05:09;22.10;74.40
73955;DHT22;62306;52.516;13.290;2022-08-01T07:07:36;22.10;74.50
73955;DHT22;62306;52.516;13.290;2022-08-01T07:10:04;22.10;74.30
73955;DHT22;62306;52.516;13.290;2022-08-01T07:12:32;22.10;74.40
73955;DHT22;62306;52.516;13.290;2022-08-01T07:15:00;22.00;74.90
73955;DHT22;62306;52.516;13.290;2022-08-01T07:17:27;22.00;75.10
73955;DHT22;62306;52.516;13.290;2022-08-01T07:19:54;21.90;75.30
73955;DHT22;62306;52.516;13.290;2022-08-01T07:22:21;22.00;75.20
73955;DHT22;62306;52.516;13.290;2022-08-01T07:24:48;22.20;74.50
73955;DHT22;62306;52.516;13.290;2022-08-01T07:27:15;22.30;73.30
73955;DHT22;62306;52.516;13.290;2022-08-01T07:29:43;22.60;72.50
73955;DHT22;62306;52.516;13.290;2022-08-01T07:32:11;22.60;71.80
73955;DHT22;62306;52.516;13.290;2022-08-01T07:34:38;22.70;71.20
73955;DHT22;62306;52.516;13.290;2022-08-01T07:37:05;22.70;70.40
73955;DHT22;62306;52.516;13.290;2022-08-01T07:39:32;22.70;70.70
73955;DHT22;62306;52.516;13.290;2022-08-01T07:41:59;22.80;70.00
73955;DHT22;62306;52.516;13.290;2022-08-01T07:44:26;22.80;69.50
73955;DHT22;62306;52.516;13.290;2022-08-01T07:46:53;22.80;69.40
73955;DHT22;62306;52.516;13.290;2022-08-01T07:49:21;22.70;69.70
73955;DHT22;62306;52.516;13.290;2022-08-01T07:51:48;22.60;70.30
73955;DHT22;62306;52.516;13.290;2022-08-01T07:54:15;22.50;70.50
73955;DHT22;62306;52.516;13.290;2022-08-01T07:56:42;22.40;71.10
73955;DHT22;62306;52.516;13.290;2022-08-01T07:59:09;22.30;71.30
73955;DHT22;62306;52.516;13.290;2022-08-01T08:01:36;22.20;71.60
73955;DHT22;62306;52.516;13.290;2022-08-01T08:04:03;22.00;71.80
73955;DHT22;62306;52.516;13.290;2022-08-01T08:06:31;22.00;71.90
73955;DHT22;62306;52.516;13.290;2022-08-01T08:09:01;21.90;72.10
73955;DHT22;62306;52.516;13.290;2022-08-01T08:11:28;21.90;72.00
73955;DHT22;62306;52.516;13.290;2022-08-01T08:14:01;21.90;71.70
73955;DHT22;62306;52.516;13.290;2022-08-01T08:16:28;22.00;71.60
73955;DHT22;62306;52.516;13.290;2022-08-01T08:18:56;22.10;71.10
73955;DHT22;62306;52.516;13.290;2022-08-01T08:21:22;22.30;70.60
73955;DHT22;62306;52.516;13.290;2022-08-01T08:23:51;22.50;69.80
73955;DHT22;62306;52.516;13.290;2022-08-01T08:26:35;22.70;69.10
73955;DHT22;62306;52.516;13.290;2022-08-01T08:29:05;22.70;68.40
73955;DHT22;62306;52.516;13.290;2022-08-01T08:31:32;22.60;68.60
73955;DHT22;62306;52.516;13.290;2022-08-01T08:34:00;22.60;68.90
73955;DHT22;62306;52.516;13.290;2022-08-01T08:36:27;22.80;68.70
73955;DHT22;62306;52.516;13.290;2022-08-01T08:38:55;23.10;67.70
73955;DHT22;62306;52.516;13.290;2022-08-01T08:41:26;23.10;67.30
73955;DHT22;62306;52.516;13.290;2022-08-01T08:43:53;23.10;67.10
73955;DHT22;62306;52.516;13.290;2022-08-01T08:46:23;23.00;66.70
73955;DHT22;62306;52.516;13.290;2022-08-01T08:48:51;23.10;66.70
73955;DHT22;62306;52.516;13.290;2022-08-01T08:51:19;23.30;66.00
73955;DHT22;62306;52.516;13.290;2022-08-01T08:53:46;23.60;64.40
73955;DHT22;62306;52.516;13.290;2022-08-01T08:56:15;24.00;63.30
73955;DHT22;62306;52.516;13.290;2022-08-01T08:58:43;24.30;61.30
73955;DHT22;62306;52.516;13.290;2022-08-01T09:01:11;24.20;60.70
73955;DHT22;62306;52.516;13.290;2022-08-01T09:03:39;24.10;60.80
73955;DHT22;62306;52.516;13.290;2022-08-01T09:06:06;23.80;61.30
73955;DHT22;62306;52.516;13.290;2022-08-01T09:08:33;23.50;62.40
73955;DHT22;62306;52.516;13.290;2022-08-01T09:11:00;23.30;63.20
73955;DHT22;62306;52.516;13.290;2022-08-01T09:13:34;23.20;64.20
73955;DHT22;62306;52.516;13.290;2022-08-01T09:16:01;23.00;64.90
73955;DHT22;62306;52.516;13.290;2022-08-01T09:18:31;23.00;65.70
73955;DHT22;62306;52.516;13.290;2022-08-01T09:21:16;23.00;65.70
73955;DHT22;62306;52.516;13.290;2022-08-01T09:23:46;23.00;65.70
73955;DHT22;62306;52.516;13.290;2022-08-01T09:26:15;23.20;65.30
73955;DHT22;62306;52.516;13.290;2022-08-01T09:28:45;23.40;64.70
73955;DHT22;62306;52.516;13.290;2022-08-01T09:31:14;23.50;64.40
73955;DHT22;62306;52.516;13.290;2022-08-01T09:33:53;23.80;64.10
73955;DHT22;62306;52.516;13.290;2022-08-01T09:36:21;23.90;63.30
73955;DHT22;62306;52.516;13.290;2022-08-01T09:38:49;24.00;63.10
73955;DHT22;62306;52.516;13.290;2022-08-01T09:41:17;23.90;63.50
73955;DHT22;62306;52.516;13.290;2022-08-01T09:43:50;23.80;63.80
73955;DHT22;62306;52.516;13.290;2022-08-01T09:46:17;23.60;64.00
73955;DHT22;62306;52.516;13.290;2022-08-01T09:49:05;23.50;64.50
73955;DHT22;62306;52.516;13.290;2022-08-01T09:51:34;23.40;64.60
73955;DHT22;62306;52.516;13.290;2022-08-01T09:54:05;23.40;64.30
73955;DHT22;62306;52.516;13.290;2022-08-01T09:56:37;23.30;64.90
73955;DHT22;62306;52.516;13.290;2022-08-01T09:59:06;23.30;65.00
73955;DHT22;62306;52.516;13.290;2022-08-01T10:01:46;23.40;64.60
73955;DHT22;62306;52.516;13.290;2022-08-01T10:04:16;23.50;64.30
73955;DHT22;62306;52.516;13.290;2022-08-01T10:06:46;23.70;63.60
73955;DHT22;62306;52.516;13.290;2022-08-01T10:09:16;23.70;63.50
73955;DHT22;62306;52.516;13.290;2022-08-01T10:11:52;23.90;62.50
73955;DHT22;62306;52.516;13.290;2022-08-01T10:14:24;23.90;62.10
73955;DHT22;62306;52.516;13.290;2022-08-01T10:16:52;23.90;62.10
73955;DHT22;62306;52.516;13.290;2022-08-01T10:19:21;24.00;62.30
73955;DHT22;62306;52.516;13.290;2022-08-01T10:21:50;24.00;61.80
73955;DHT22;62306;52.516;13.290;2022-08-01T10:24:28;24.00;62.10
73955;DHT22;62306;52.516;13.290;2022-08-01T10:27:02;24.00;62.00
73955;DHT22;62306;52.516;13.290;2022-08-01T10:29:36;24.10;62.30
73955;DHT22;62306;52.516;13.290;2022-08-01T10:32:05;24.20;62.20
73955;DHT22;62306;52.516;13.290;2022-08-01T10:34:35;24.20;61.70
73955;DHT22;62306;52.516;13.290;2022-08-01T10:37:02;24.20;61.80
73955;DHT22;62306;52.516;13.290;2022-08-01T10:39:30;24.00;62.50
73955;DHT22;62306;52.516;13.290;2022-08-01T10:41:58;24.00;62.50
73955;DHT22;62306;52.516;13.290;2022-08-01T10:44:27;24.10;63.00
73955;DHT22;62306;52.516;13.290;2022-08-01T10:47:01;24.10;63.10
73955;DHT22;62306;52.516;13.290;2022-08-01T10:49:34;24.10;62.50
73955;DHT22;62306;52.516;13.290;2022-08-01T10:52:03;24.10;62.30
73955;DHT22;62306;52.516;13.290;2022-08-01T10:54:38;24.10;62.60
73955;DHT22;62306;52.516;13.290;2022-08-01T10:57:06;24.20;61.60
73955;DHT22;62306;52.516;13.290;2022-08-01T10:59:33;24.10;61.70
73955;DHT22;62306;52.516;13.290;2022-08-01T11:02:03;24.10;61.90
73955;DHT22;62306;52.516;13.290;2022-08-01T11:04:41;24.00;62.50
73955;DHT22;62306;52.516;13.290;2022-08-01T11:07:15;24.10;62.00
73955;DHT22;62306;52.516;13.290;2022-08-01T11:09:44;24.30;60.90
73955;DHT22;62306;52.516;13.290;2022-08-01T11:12:14;24.60;60.00
73955;DHT22;62306;52.516;13.290;2022-08-01T11:15:17;24.60;59.70
73955;DHT22;62306;52.516;13.290;2022-08-01T11:17:52;24.40;60.20
73955;DHT22;62306;52.516;13.290;2022-08-01T11:20:20;24.10;61.00
73955;DHT22;62306;52.516;13.290;2022-08-01T11:26:21;23.70;62.40
73955;DHT22;62306;52.516;13.290;2022-08-01T11:29:14;23.70;63.00
73955;DHT22;62306;52.516;13.290;2022-08-01T11:31:41;23.60;64.60
73955;DHT22;62306;52.516;13.290;2022-08-01T11:34:10;23.50;66.10
73955;DHT22;62306;52.516;13.290;2022-08-01T11:36:37;23.30;67.10
73955;DHT22;62306;52.516;13.290;2022-08-01T11:39:14;23.10;67.90
73955;DHT22;62306;52.516;13.290;2022-08-01T11:41:43;23.10;67.80
73955;DHT22;62306;52.516;13.290;2022-08-01T11:44:12;23.30;66.90
73955;DHT22;62306;52.516;13.290;2022-08-01T11:46:53;23.60;65.90
73955;DHT22;62306;52.516;13.290;2022-08-01T11:49:44;23.90;64.30
73955;DHT22;62306;52.516;13.290;2022-08-01T11:52:14;24.00;63.50
73955;DHT22;62306;52.516;13.290;2022-08-01T11:54:43;24.30;62.80
73955;DHT22;62306;52.516;13.290;2022-08-01T11:57:12;24.40;61.90
73955;DHT22;62306;52.516;13.290;2022-08-01T11:59:41;24.70;61.70
73955;DHT22;62306;52.516;13.290;2022-08-01T12:02:19;24.90;60.50
73955;DHT22;62306;52.516;13.290;2022-08-01T12:04:54;25.10;59.40
73955;DHT22;62306;52.516;13.290;2022-08-01T12:07:23;25.10;59.10
73955;DHT22;62306;52.516;13.290;2022-08-01T12:10:02;25.30;58.80
73955;DHT22;62306;52.516;13.290;2022-08-01T12:12:31;25.20;58.40
73955;DHT22;62306;52.516;13.290;2022-08-01T12:15:00;25.10;58.70
73955;DHT22;62306;52.516;13.290;2022-08-01T12:17:39;25.10;58.40
73955;DHT22;62306;52.516;13.290;2022-08-01T12:20:10;25.20;58.40
73955;DHT22;62306;52.516;13.290;2022-08-01T12:22:38;25.50;57.70
73955;DHT22;62306;52.516;13.290;2022-08-01T12:25:06;25.60;57.30
73955;DHT22;62306;52.516;13.290;2022-08-01T12:27:34;25.70;56.60
73955;DHT22;62306;52.516;13.290;2022-08-01T12:30:04;25.70;56.50
73955;DHT22;62306;52.516;13.290;2022-08-01T12:32:33;25.90;56.60
73955;DHT22;62306;52.516;13.290;2022-08-01T12:35:03;26.00;55.80
73955;DHT22;62306;52.516;13.290;2022-08-01T12:37:32;26.20;55.10
73955;DHT22;62306;52.516;13.290;2022-08-01T12:40:06;26.20;54.70
73955;DHT22;62306;52.516;13.290;2022-08-01T12:42:36;26.10;54.90
73955;DHT22;62306;52.516;13.290;2022-08-01T12:45:06;26.00;55.50
73955;DHT22;62306;52.516;13.290;2022-08-01T12:47:35;26.10;55.30
73955;DHT22;62306;52.516;13.290;2022-08-01T12:50:03;26.30;55.00
73955;DHT22;62306;52.516;13.290;2022-08-01T12:52:34;26.30;54.80
73955;DHT22;62306;52.516;13.290;2022-08-01T12:55:07;26.40;54.50
73955;DHT22;62306;52.516;13.290;2022-08-01T12:57:36;26.50;54.50
73955;DHT22;62306;52.516;13.290;2022-08-01T13:00:12;26.50;54.60
73955;DHT22;62306;52.516;13.290;2022-08-01T13:02:40;26.40;54.60
73955;DHT22;62306;52.516;13.290;2022-08-01T13:05:08;26.20;55.40
73955;DHT22;62306;52.516;13.290;2022-08-01T13:07:48;25.80;56.20
73955;DHT22;62306;52.516;13.290;2022-08-01T13:10:24;25.50;57.10
73955;DHT22;62306;52.516;13.290;2022-08-01T13:12:53;25.10;57.70
73955;DHT22;62306;52.516;13.290;2022-08-01T13:15:23;24.90;58.00
73955;DHT22;62306;52.516;13.290;2022-08-01T13:17:51;24.80;58.00
73955;DHT22;62306;52.516;13.290;2022-08-01T13:20:27;24.70;58.30
73955;DHT22;62306;52.516;13.290;2022-08-01T13:23:13;24.60;58.60
73955;DHT22;62306;52.516;13.290;2022-08-01T13:25:51;24.70;58.90
73955;DHT22;62306;52.516;13.290;2022-08-01T13:28:20;24.90;58.40
73955;DHT22;62306;52.516;13.290;2022-08-01T13:30:52;25.10;57.20
73955;DHT22;62306;52.516;13.290;2022-08-01T13:33:19;25.30;56.60
73955;DHT22;62306;52.516;13.290;2022-08-01T13:35:46;25.60;55.90
73955;DHT22;62306;52.516;13.290;2022-08-01T13:38:17;26.00;54.80
73955;DHT22;62306;52.516;13.290;2022-08-01T13:40:44;26.00;54.60
73955;DHT22;62306;52.516;13.290;2022-08-01T13:43:11;25.70;55.20
73955;DHT22;62306;52.516;13.290;2022-08-01T13:45:40;25.60;55.00
73955;DHT22;62306;52.516;13.290;2022-08-01T13:48:07;25.60;54.90
73955;DHT22;62306;52.516;13.290;2022-08-01T13:50:34;25.80;54.70
73955;DHT22;62306;52.516;13.290;2022-08-01T13:53:01;26.10;54.00
73955;DHT22;62306;52.516;13.290;2022-08-01T13:55:30;26.50;53.50
73955;DHT22;62306;52.516;13.290;2022-08-01T13:57:57;26.60;52.20
73955;DHT22;62306;52.516;13.290;2022-08-01T14:00:24;26.60;52.10
73955;DHT22;62306;52.516;13.290;2022-08-01T14:02:51;26.60;52.50
73955;DHT22;62306;52.516;13.290;2022-08-01T14:05:18;26.50;52.20
73955;DHT22;62306;52.516;13.290;2022-08-01T14:07:45;26.60;51.20
73955;DHT22;62306;52.516;13.290;2022-08-01T14:10:12;26.60;51.50
73955;DHT22;62306;52.516;13.290;2022-08-01T14:12:40;26.70;52.00
73955;DHT22;62306;52.516;13.290;2022-08-01T14:15:08;26.70;51.50
73955;DHT22;62306;52.516;13.290;2022-08-01T14:17:35;26.60;51.30
73955;DHT22;62306;52.516;13.290;2022-08-01T14:20:03;26.40;51.10
73955;DHT22;62306;52.516;13.290;2022-08-01T14:22:31;26.20;51.30
73955;DHT22;62306;52.516;13.290;2022-08-01T14:24:58;25.90;51.40
73955;DHT22;62306;52.516;13.290;2022-08-01T14:27:25;25.90;52.20
73955;DHT22;62306;52.516;13.290;2022-08-01T14:29:57;25.70;52.80
73955;DHT22;62306;52.516;13.290;2022-08-01T14:32:24;25.50;53.50
73955;DHT22;62306;52.516;13.290;2022-08-01T14:34:51;25.60;53.60
73955;DHT22;62306;52.516;13.290;2022-08-01T14:37:18;25.70;53.50
73955;DHT22;62306;52.516;13.290;2022-08-01T14:39:45;25.80;53.40
73955;DHT22;62306;52.516;13.290;2022-08-01T14:42:12;25.90;53.40
73955;DHT22;62306;52.516;13.290;2022-08-01T14:44:39;25.90;53.00
73955;DHT22;62306;52.516;13.290;2022-08-01T14:47:07;26.00;52.90
73955;DHT22;62306;52.516;13.290;2022-08-01T14:49:35;26.10;52.60
73955;DHT22;62306;52.516;13.290;2022-08-01T14:52:02;26.20;52.30
73955;DHT22;62306;52.516;13.290;2022-08-01T14:54:29;26.10;52.70
73955;DHT22;62306;52.516;13.290;2022-08-01T14:56:56;25.90;53.90
73955;DHT22;62306;52.516;13.290;2022-08-01T14:59:24;25.60;55.20
73955;DHT22;62306;52.516;13.290;2022-08-01T15:01:51;25.30;56.00
73955;DHT22;62306;52.516;13.290;2022-08-01T15:04:20;25.20;56.30
73955;DHT22;62306;52.516;13.290;2022-08-01T15:06:47;25.00;57.00
73955;DHT22;62306;52.516;13.290;2022-08-01T15:09:14;25.00;57.10
73955;DHT22;62306;52.516;13.290;2022-08-01T15:11:41;24.90;57.10
73955;DHT22;62306;52.516;13.290;2022-08-01T15:14:08;24.90;56.90
73955;DHT22;62306;52.516;13.290;2022-08-01T15:16:53;24.80;57.00
73955;DHT22;62306;52.516;13.290;2022-08-01T15:19:21;24.90;56.40
73955;DHT22;62306;52.516;13.290;2022-08-01T15:21:48;25.00;56.50
73955;DHT22;62306;52.516;13.290;2022-08-01T15:24:15;24.90;56.00
73955;DHT22;62306;52.516;13.290;2022-08-01T15:26:42;24.90;56.00
73955;DHT22;62306;52.516;13.290;2022-08-01T15:29:09;24.80;56.20
73955;DHT22;62306;52.516;13.290;2022-08-01T15:31:37;24.70;56.60
73955;DHT22;62306;52.516;13.290;2022-08-01T15:34:04;24.60;57.00